ECOJL KCHS-KBHM
Flight info
| Callsign | ECOJL |
|---|---|
| Flight time | 0h 59m |
| Altitude | 38000 |
| Route | STUNO1 ALD KIOSK |
| Aircraft | B772/H-SDE2E3FGHIJ5LORVWXY/LB1D1 |
Departure
| Time | 2026-04-29 00:35 |
|---|---|
| Airport | Charleston International Airport (KCHS) |
Arrival
| Time | 2026-04-29 01:34 |
|---|---|
| Airport | Birmingham-Shuttlesworth International Airport (KBHM) |
| Time | Latitude | Longitude | Altitude | Speed | Heading |
|---|---|---|---|---|---|
| 2026-04-29 00:13 | 32.88604 | -80.03877 | 44 ft | 0 kts | 99° |
| 2026-04-29 00:21 | 32.88605 | -80.03878 | 44 ft | 0 kts | 99° |
| 2026-04-29 00:22 | 32.88606 | -80.03890 | 44 ft | 3 kts | 99° |
| 2026-04-29 00:22 | 32.88609 | -80.03918 | 44 ft | 3 kts | 84° |
| 2026-04-29 00:22 | 32.88603 | -80.03941 | 44 ft | 2 kts | 60° |
| 2026-04-29 00:22 | 32.88591 | -80.03960 | 44 ft | 2 kts | 38° |
| 2026-04-29 00:23 | 32.88576 | -80.03970 | 44 ft | 2 kts | 15° |
| 2026-04-29 00:23 | 32.88565 | -80.03973 | 44 ft | 0 kts | 8° |
| 2026-04-29 00:25 | 32.88566 | -80.03973 | 44 ft | 0 kts | 7° |
| 2026-04-29 00:25 | 32.88586 | -80.03975 | 44 ft | 6 kts | 344° |
| 2026-04-29 00:26 | 32.88643 | -80.04018 | 44 ft | 12 kts | 322° |
| 2026-04-29 00:26 | 32.88668 | -80.04040 | 44 ft | 0 kts | 322° |
| 2026-04-29 00:26 | 32.88672 | -80.04046 | 44 ft | 6 kts | 303° |
| 2026-04-29 00:27 | 32.88656 | -80.04136 | 44 ft | 15 kts | 235° |
| 2026-04-29 00:27 | 32.88577 | -80.04253 | 43 ft | 20 kts | 231° |
| 2026-04-29 00:27 | 32.88489 | -80.04406 | 41 ft | 24 kts | 254° |
| 2026-04-29 00:27 | 32.88537 | -80.04597 | 42 ft | 27 kts | 321° |
| 2026-04-29 00:28 | 32.88700 | -80.04696 | 45 ft | 16 kts | 342° |
| 2026-04-29 00:28 | 32.88818 | -80.04656 | 47 ft | 19 kts | 24° |
| 2026-04-29 00:28 | 32.88954 | -80.04587 | 50 ft | 22 kts | 24° |
| 2026-04-29 00:28 | 32.89102 | -80.04507 | 55 ft | 24 kts | 25° |
| 2026-04-29 00:29 | 32.89269 | -80.04459 | 58 ft | 26 kts | 360° |
| 2026-04-29 00:29 | 32.89458 | -80.04457 | 60 ft | 29 kts | 0° |
| 2026-04-29 00:29 | 32.89669 | -80.04449 | 64 ft | 31 kts | 1° |
| 2026-04-29 00:29 | 32.89897 | -80.04445 | 64 ft | 34 kts | 2° |
| 2026-04-29 00:30 | 32.90149 | -80.04442 | 64 ft | 37 kts | 0° |
| 2026-04-29 00:30 | 32.90324 | -80.04436 | 64 ft | 35 kts | 0° |
| 2026-04-29 00:30 | 32.90536 | -80.04530 | 63 ft | 25 kts | 326° |
| 2026-04-29 00:30 | 32.90696 | -80.04652 | 64 ft | 29 kts | 327° |
| 2026-04-29 00:31 | 32.90864 | -80.04780 | 64 ft | 19 kts | 328° |
| 2026-04-29 00:31 | 32.90987 | -80.04874 | 65 ft | 22 kts | 327° |
| 2026-04-29 00:31 | 32.91129 | -80.04985 | 67 ft | 25 kts | 325° |
| 2026-04-29 00:31 | 32.91193 | -80.04993 | 67 ft | 9 kts | 51° |
| 2026-04-29 00:32 | 32.91225 | -80.04938 | 66 ft | 0 kts | 57° |
| 2026-04-29 00:34 | 32.91239 | -80.04912 | 65 ft | 7 kts | 56° |
| 2026-04-29 00:34 | 32.91277 | -80.04842 | 66 ft | 11 kts | 59° |
| 2026-04-29 00:34 | 32.91278 | -80.04798 | 66 ft | 8 kts | 123° |
| 2026-04-29 00:35 | 32.90963 | -80.04552 | 64 ft | 96 kts | 148° |
| 2026-04-29 00:35 | 32.90199 | -80.03959 | 125 ft | 156 kts | 146° |
| 2026-04-29 00:35 | 32.89311 | -80.03194 | 738 ft | 165 kts | 146° |
| 2026-04-29 00:35 | 32.88255 | -80.02772 | 1425 ft | 166 kts | 181° |
| 2026-04-29 00:36 | 32.87118 | -80.03213 | 1576 ft | 187 kts | 217° |
| 2026-04-29 00:36 | 32.86256 | -80.04466 | 1882 ft | 207 kts | 238° |
| 2026-04-29 00:36 | 32.85481 | -80.05991 | 2376 ft | 224 kts | 239° |
| 2026-04-29 00:36 | 32.84895 | -80.07748 | 2816 ft | 243 kts | 263° |
| 2026-04-29 00:37 | 32.85070 | -80.09813 | 3404 ft | 257 kts | 282° |
| 2026-04-29 00:37 | 32.85486 | -80.11842 | 4486 ft | 252 kts | 284° |
| 2026-04-29 00:37 | 32.85901 | -80.13821 | 5366 ft | 254 kts | 284° |
| 2026-04-29 00:37 | 32.86332 | -80.15869 | 6217 ft | 256 kts | 284° |
| 2026-04-29 00:38 | 32.86761 | -80.17903 | 7002 ft | 260 kts | 284° |
| 2026-04-29 00:38 | 32.87204 | -80.19992 | 7737 ft | 264 kts | 284° |
| 2026-04-29 00:38 | 32.87655 | -80.22111 | 8456 ft | 267 kts | 284° |
| 2026-04-29 00:38 | 32.88115 | -80.24266 | 9119 ft | 271 kts | 284° |
| 2026-04-29 00:39 | 32.88578 | -80.26424 | 9794 ft | 275 kts | 285° |
| 2026-04-29 00:39 | 32.89056 | -80.28645 | 10383 ft | 283 kts | 285° |
| 2026-04-29 00:39 | 32.89562 | -80.30971 | 10645 ft | 303 kts | 285° |
| 2026-04-29 00:39 | 32.90112 | -80.33481 | 10927 ft | 322 kts | 285° |
| 2026-04-29 00:40 | 32.90702 | -80.36141 | 11197 ft | 342 kts | 285° |
| 2026-04-29 00:40 | 32.91349 | -80.38941 | 11479 ft | 360 kts | 287° |
| 2026-04-29 00:40 | 32.92097 | -80.41815 | 12064 ft | 368 kts | 285° |
| 2026-04-29 00:40 | 32.92721 | -80.44764 | 12849 ft | 371 kts | 284° |
| 2026-04-29 00:41 | 32.93351 | -80.47759 | 13553 ft | 377 kts | 285° |
| 2026-04-29 00:41 | 32.93853 | -80.50797 | 14407 ft | 380 kts | 279° |
| 2026-04-29 00:41 | 32.94160 | -80.53919 | 15285 ft | 382 kts | 278° |
| 2026-04-29 00:41 | 32.94457 | -80.57074 | 16040 ft | 387 kts | 278° |
| 2026-04-29 00:42 | 32.94757 | -80.60255 | 16829 ft | 391 kts | 278° |
| 2026-04-29 00:42 | 32.95058 | -80.63457 | 17622 ft | 395 kts | 278° |
| 2026-04-29 00:42 | 32.95363 | -80.66691 | 18430 ft | 398 kts | 277° |
| 2026-04-29 00:42 | 32.95669 | -80.69956 | 19288 ft | 400 kts | 277° |
| 2026-04-29 00:43 | 32.95976 | -80.73232 | 20179 ft | 401 kts | 277° |
| 2026-04-29 00:43 | 32.96283 | -80.76510 | 21027 ft | 402 kts | 277° |
| 2026-04-29 00:43 | 32.96592 | -80.79820 | 21760 ft | 406 kts | 276° |
| 2026-04-29 00:43 | 32.96903 | -80.83158 | 22489 ft | 410 kts | 276° |
| 2026-04-29 00:44 | 32.97218 | -80.86544 | 23279 ft | 411 kts | 276° |
| 2026-04-29 00:44 | 32.97530 | -80.89925 | 23933 ft | 416 kts | 276° |
| 2026-04-29 00:44 | 32.97854 | -80.93366 | 24498 ft | 422 kts | 276° |
| 2026-04-29 00:44 | 32.98179 | -80.96812 | 25137 ft | 426 kts | 276° |
| 2026-04-29 00:45 | 32.98507 | -81.00317 | 25840 ft | 429 kts | 276° |
| 2026-04-29 00:45 | 32.98837 | -81.03853 | 26469 ft | 432 kts | 276° |
| 2026-04-29 00:45 | 32.99169 | -81.07421 | 26972 ft | 437 kts | 276° |
| 2026-04-29 00:45 | 32.99504 | -81.11041 | 27497 ft | 442 kts | 276° |
| 2026-04-29 00:46 | 32.99840 | -81.14670 | 28076 ft | 444 kts | 276° |
| 2026-04-29 00:46 | 33.00173 | -81.18288 | 28598 ft | 447 kts | 276° |
| 2026-04-29 00:46 | 33.00514 | -81.21992 | 29073 ft | 451 kts | 276° |
| 2026-04-29 00:46 | 33.00851 | -81.25680 | 29500 ft | 455 kts | 276° |
| 2026-04-29 00:47 | 33.01196 | -81.29443 | 30169 ft | 454 kts | 276° |
| 2026-04-29 00:47 | 33.01633 | -81.33114 | 30994 ft | 449 kts | 279° |
| 2026-04-29 00:47 | 33.02148 | -81.36750 | 31935 ft | 441 kts | 279° |
| 2026-04-29 00:47 | 33.02648 | -81.40273 | 32805 ft | 434 kts | 279° |
| 2026-04-29 00:48 | 33.03141 | -81.43780 | 33657 ft | 428 kts | 279° |
| 2026-04-29 00:48 | 33.03627 | -81.47270 | 34390 ft | 425 kts | 279° |
| 2026-04-29 00:48 | 33.04102 | -81.50697 | 35016 ft | 423 kts | 279° |
| 2026-04-29 00:48 | 33.04573 | -81.54122 | 35715 ft | 419 kts | 280° |
| 2026-04-29 00:49 | 33.05049 | -81.57609 | 36417 ft | 414 kts | 280° |
| 2026-04-29 00:49 | 33.05518 | -81.61053 | 36976 ft | 412 kts | 280° |
| 2026-04-29 00:49 | 33.05981 | -81.64463 | 37437 ft | 410 kts | 280° |
| 2026-04-29 00:49 | 33.06440 | -81.67857 | 37953 ft | 408 kts | 280° |
| 2026-04-29 00:50 | 33.06897 | -81.71261 | 38090 ft | 410 kts | 280° |
| 2026-04-29 00:50 | 33.07799 | -81.77988 | 38090 ft | 406 kts | 280° |
| 2026-04-29 00:51 | 33.08684 | -81.84627 | 38088 ft | 405 kts | 280° |
| 2026-04-29 00:51 | 33.09565 | -81.91267 | 38084 ft | 406 kts | 280° |
| 2026-04-29 00:52 | 33.10441 | -81.97910 | 38096 ft | 405 kts | 280° |
| 2026-04-29 00:52 | 33.11310 | -82.04524 | 38098 ft | 405 kts | 279° |
| 2026-04-29 00:53 | 33.12176 | -82.11144 | 38093 ft | 403 kts | 280° |
| 2026-04-29 00:53 | 33.13041 | -82.17780 | 38095 ft | 405 kts | 280° |
| 2026-04-29 00:54 | 33.13900 | -82.24412 | 38091 ft | 405 kts | 280° |
| 2026-04-29 00:54 | 33.14754 | -82.31027 | 38096 ft | 405 kts | 279° |
| 2026-04-29 00:55 | 33.15602 | -82.37619 | 38098 ft | 405 kts | 280° |
| 2026-04-29 00:55 | 33.16451 | -82.44253 | 38097 ft | 404 kts | 280° |
| 2026-04-29 00:56 | 33.17296 | -82.50884 | 38095 ft | 403 kts | 280° |
| 2026-04-29 00:56 | 33.18137 | -82.57512 | 38095 ft | 407 kts | 280° |
| 2026-04-29 00:57 | 33.18972 | -82.64125 | 38090 ft | 404 kts | 280° |
| 2026-04-29 00:57 | 33.19808 | -82.70766 | 38101 ft | 404 kts | 279° |
| 2026-04-29 00:58 | 33.20636 | -82.77378 | 38099 ft | 406 kts | 279° |
| 2026-04-29 00:58 | 33.21462 | -82.84009 | 38095 ft | 402 kts | 279° |
| 2026-04-29 00:59 | 33.22282 | -82.90611 | 38095 ft | 404 kts | 279° |
| 2026-04-29 00:59 | 33.23099 | -82.97220 | 38097 ft | 403 kts | 279° |
| 2026-04-29 01:00 | 33.23909 | -83.03805 | 38095 ft | 402 kts | 279° |
| 2026-04-29 01:00 | 33.24720 | -83.10426 | 38095 ft | 404 kts | 279° |
| 2026-04-29 01:01 | 33.25527 | -83.17044 | 38092 ft | 405 kts | 279° |
| 2026-04-29 01:01 | 33.26336 | -83.23711 | 38091 ft | 405 kts | 279° |
| 2026-04-29 01:02 | 33.27137 | -83.30341 | 38083 ft | 406 kts | 279° |
| 2026-04-29 01:02 | 33.27941 | -83.37035 | 38081 ft | 407 kts | 279° |
| 2026-04-29 01:03 | 33.28734 | -83.43662 | 38084 ft | 405 kts | 278° |
| 2026-04-29 01:03 | 33.29529 | -83.50330 | 38072 ft | 406 kts | 278° |
| 2026-04-29 01:04 | 33.30318 | -83.56986 | 38077 ft | 407 kts | 279° |
| 2026-04-29 01:04 | 33.31103 | -83.63637 | 38074 ft | 406 kts | 279° |
| 2026-04-29 01:05 | 33.31888 | -83.70319 | 38086 ft | 407 kts | 278° |
| 2026-04-29 01:05 | 33.32671 | -83.77013 | 38080 ft | 407 kts | 278° |
| 2026-04-29 01:06 | 33.33446 | -83.83673 | 38085 ft | 407 kts | 278° |
| 2026-04-29 01:06 | 33.34220 | -83.90362 | 38084 ft | 406 kts | 278° |
| 2026-04-29 01:07 | 33.34989 | -83.97033 | 38074 ft | 408 kts | 278° |
| 2026-04-29 01:07 | 33.35757 | -84.03729 | 38072 ft | 408 kts | 278° |
| 2026-04-29 01:08 | 33.36520 | -84.10411 | 38074 ft | 408 kts | 278° |
| 2026-04-29 01:08 | 33.37281 | -84.17117 | 38090 ft | 406 kts | 277° |
| 2026-04-29 01:09 | 33.38034 | -84.23776 | 38084 ft | 406 kts | 278° |
| 2026-04-29 01:09 | 33.38784 | -84.30438 | 38089 ft | 404 kts | 277° |
| 2026-04-29 01:10 | 33.39532 | -84.37126 | 38091 ft | 407 kts | 278° |
| 2026-04-29 01:10 | 33.40276 | -84.43808 | 38045 ft | 402 kts | 278° |
| 2026-04-29 01:10 | 33.40639 | -84.47082 | 37521 ft | 391 kts | 278° |
| 2026-04-29 01:11 | 33.40992 | -84.50255 | 36881 ft | 384 kts | 277° |
| 2026-04-29 01:11 | 33.41349 | -84.53478 | 36236 ft | 398 kts | 277° |
| 2026-04-29 01:11 | 33.41718 | -84.56844 | 35245 ft | 418 kts | 277° |
| 2026-04-29 01:11 | 33.42094 | -84.60278 | 34429 ft | 420 kts | 277° |
| 2026-04-29 01:12 | 33.42472 | -84.63745 | 33708 ft | 421 kts | 277° |
| 2026-04-29 01:12 | 33.42851 | -84.67230 | 33038 ft | 426 kts | 276° |
| 2026-04-29 01:12 | 33.43231 | -84.70747 | 32278 ft | 432 kts | 276° |
| 2026-04-29 01:12 | 33.43614 | -84.74290 | 31482 ft | 435 kts | 276° |
| 2026-04-29 01:13 | 33.44001 | -84.77875 | 30732 ft | 435 kts | 276° |
| 2026-04-29 01:13 | 33.44389 | -84.81471 | 30266 ft | 430 kts | 275° |
| 2026-04-29 01:13 | 33.44768 | -84.85008 | 29779 ft | 430 kts | 275° |
| 2026-04-29 01:13 | 33.45149 | -84.88557 | 29254 ft | 434 kts | 275° |
| 2026-04-29 01:14 | 33.45529 | -84.92118 | 28700 ft | 431 kts | 275° |
| 2026-04-29 01:14 | 33.45903 | -84.95611 | 28170 ft | 424 kts | 275° |
| 2026-04-29 01:14 | 33.46276 | -84.99101 | 27639 ft | 419 kts | 275° |
| 2026-04-29 01:14 | 33.46639 | -85.02512 | 27120 ft | 415 kts | 275° |
| 2026-04-29 01:15 | 33.47002 | -85.05924 | 26613 ft | 410 kts | 275° |
| 2026-04-29 01:15 | 33.47356 | -85.09253 | 26117 ft | 407 kts | 276° |
| 2026-04-29 01:15 | 33.47711 | -85.12615 | 25622 ft | 403 kts | 275° |
| 2026-04-29 01:15 | 33.48058 | -85.15898 | 25139 ft | 398 kts | 275° |
| 2026-04-29 01:16 | 33.48398 | -85.19138 | 24653 ft | 394 kts | 276° |
| 2026-04-29 01:16 | 33.48740 | -85.22398 | 24161 ft | 391 kts | 276° |
| 2026-04-29 01:16 | 33.49074 | -85.25587 | 23682 ft | 387 kts | 276° |
| 2026-04-29 01:16 | 33.49407 | -85.28781 | 23205 ft | 384 kts | 276° |
| 2026-04-29 01:17 | 33.49733 | -85.31911 | 22724 ft | 381 kts | 275° |
| 2026-04-29 01:17 | 33.50057 | -85.35027 | 22242 ft | 378 kts | 276° |
| 2026-04-29 01:17 | 33.50379 | -85.38146 | 21758 ft | 376 kts | 275° |
| 2026-04-29 01:17 | 33.50697 | -85.41218 | 21270 ft | 373 kts | 276° |
| 2026-04-29 01:18 | 33.51015 | -85.44301 | 20785 ft | 373 kts | 275° |
| 2026-04-29 01:18 | 33.51644 | -85.50421 | 19805 ft | 368 kts | 275° |
| 2026-04-29 01:18 | 33.51952 | -85.53428 | 19312 ft | 364 kts | 275° |
| 2026-04-29 01:19 | 33.52260 | -85.56432 | 18827 ft | 362 kts | 276° |
| 2026-04-29 01:19 | 33.52561 | -85.59382 | 18350 ft | 360 kts | 276° |
| 2026-04-29 01:19 | 33.52864 | -85.62368 | 17861 ft | 361 kts | 275° |
| 2026-04-29 01:19 | 33.53167 | -85.65361 | 17356 ft | 359 kts | 275° |
| 2026-04-29 01:20 | 33.53464 | -85.68300 | 16797 ft | 356 kts | 275° |
| 2026-04-29 01:20 | 33.53757 | -85.71197 | 16293 ft | 352 kts | 275° |
| 2026-04-29 01:20 | 33.54052 | -85.74123 | 15803 ft | 352 kts | 274° |
| 2026-04-29 01:20 | 33.54343 | -85.77026 | 15318 ft | 354 kts | 275° |
| 2026-04-29 01:21 | 33.54633 | -85.79921 | 14828 ft | 353 kts | 275° |
| 2026-04-29 01:21 | 33.54922 | -85.82820 | 14322 ft | 349 kts | 275° |
| 2026-04-29 01:21 | 33.55227 | -85.85712 | 13845 ft | 348 kts | 277° |
| 2026-04-29 01:21 | 33.55721 | -85.88467 | 13740 ft | 330 kts | 280° |
| 2026-04-29 01:22 | 33.56224 | -85.91088 | 13425 ft | 310 kts | 280° |
| 2026-04-29 01:22 | 33.56692 | -85.93510 | 13209 ft | 290 kts | 280° |
| 2026-04-29 01:22 | 33.57129 | -85.95769 | 13033 ft | 272 kts | 279° |
| 2026-04-29 01:22 | 33.57546 | -85.97940 | 12530 ft | 268 kts | 279° |
| 2026-04-29 01:23 | 33.57964 | -86.00120 | 11855 ft | 272 kts | 280° |
| 2026-04-29 01:23 | 33.58387 | -86.02325 | 11222 ft | 272 kts | 280° |
| 2026-04-29 01:23 | 33.58812 | -86.04539 | 10643 ft | 271 kts | 280° |
| 2026-04-29 01:23 | 33.59228 | -86.06707 | 10078 ft | 270 kts | 280° |
| 2026-04-29 01:24 | 33.59652 | -86.08912 | 9422 ft | 273 kts | 280° |
| 2026-04-29 01:24 | 33.60075 | -86.11110 | 8911 ft | 270 kts | 279° |
| 2026-04-29 01:24 | 33.60489 | -86.13251 | 8613 ft | 262 kts | 279° |
| 2026-04-29 01:24 | 33.60901 | -86.15388 | 8309 ft | 259 kts | 279° |
| 2026-04-29 01:25 | 33.61301 | -86.17460 | 8022 ft | 255 kts | 278° |
| 2026-04-29 01:25 | 33.61702 | -86.19540 | 7752 ft | 266 kts | 278° |
| 2026-04-29 01:25 | 33.62125 | -86.21756 | 7428 ft | 273 kts | 279° |
| 2026-04-29 01:25 | 33.62548 | -86.23946 | 7119 ft | 272 kts | 278° |
| 2026-04-29 01:26 | 33.62974 | -86.26139 | 6816 ft | 269 kts | 278° |
| 2026-04-29 01:26 | 33.63401 | -86.28341 | 6504 ft | 267 kts | 278° |
| 2026-04-29 01:26 | 33.63821 | -86.30497 | 6197 ft | 266 kts | 278° |
| 2026-04-29 01:26 | 33.64240 | -86.32647 | 5885 ft | 267 kts | 278° |
| 2026-04-29 01:27 | 33.64666 | -86.34827 | 5573 ft | 268 kts | 278° |
| 2026-04-29 01:27 | 33.65088 | -86.36979 | 5268 ft | 266 kts | 278° |
| 2026-04-29 01:27 | 33.65514 | -86.39137 | 4958 ft | 264 kts | 277° |
| 2026-04-29 01:27 | 33.65936 | -86.41273 | 4653 ft | 261 kts | 278° |
| 2026-04-29 01:28 | 33.66355 | -86.43383 | 4352 ft | 259 kts | 278° |
| 2026-04-29 01:28 | 33.66772 | -86.45467 | 4056 ft | 258 kts | 277° |
| 2026-04-29 01:28 | 33.67197 | -86.47574 | 3755 ft | 258 kts | 277° |
| 2026-04-29 01:28 | 33.67614 | -86.49616 | 3497 ft | 249 kts | 277° |
| 2026-04-29 01:29 | 33.68018 | -86.51541 | 3596 ft | 227 kts | 277° |
| 2026-04-29 01:29 | 33.68312 | -86.53352 | 3506 ft | 220 kts | 264° |
| 2026-04-29 01:29 | 33.67946 | -86.55106 | 3424 ft | 213 kts | 240° |
| 2026-04-29 01:29 | 33.67284 | -86.56562 | 3329 ft | 188 kts | 232° |
| 2026-04-29 01:30 | 33.66610 | -86.57815 | 3256 ft | 168 kts | 229° |
| 2026-04-29 01:30 | 33.65970 | -86.58937 | 3208 ft | 161 kts | 228° |
| 2026-04-29 01:30 | 33.65336 | -86.60042 | 3201 ft | 161 kts | 227° |
| 2026-04-29 01:30 | 33.64698 | -86.61147 | 3189 ft | 162 kts | 228° |
| 2026-04-29 01:31 | 33.64047 | -86.62277 | 2986 ft | 162 kts | 228° |
| 2026-04-29 01:31 | 33.63413 | -86.63385 | 2765 ft | 154 kts | 228° |
| 2026-04-29 01:31 | 33.62838 | -86.64391 | 2599 ft | 142 kts | 228° |
| 2026-04-29 01:31 | 33.62283 | -86.65357 | 2407 ft | 139 kts | 227° |
| 2026-04-29 01:32 | 33.61745 | -86.66300 | 2216 ft | 136 kts | 227° |
| 2026-04-29 01:32 | 33.61200 | -86.67245 | 2014 ft | 137 kts | 227° |
| 2026-04-29 01:32 | 33.60646 | -86.68183 | 1825 ft | 139 kts | 226° |
| 2026-04-29 01:32 | 33.60097 | -86.69143 | 1676 ft | 139 kts | 229° |
| 2026-04-29 01:33 | 33.59545 | -86.70108 | 1487 ft | 143 kts | 230° |
| 2026-04-29 01:33 | 33.58978 | -86.71081 | 1300 ft | 143 kts | 230° |
| 2026-04-29 01:33 | 33.58412 | -86.72064 | 1094 ft | 144 kts | 232° |
| 2026-04-29 01:33 | 33.57834 | -86.73053 | 889 ft | 146 kts | 232° |
| 2026-04-29 01:34 | 33.57270 | -86.74041 | 704 ft | 137 kts | 233° |
| 2026-04-29 01:34 | 33.56772 | -86.74903 | 641 ft | 107 kts | 235° |
| 2026-04-29 01:34 | 33.56439 | -86.75484 | 628 ft | 63 kts | 234° |
| 2026-04-29 01:34 | 33.56258 | -86.75796 | 628 ft | 33 kts | 223° |
| 2026-04-29 01:35 | 33.56147 | -86.75872 | 624 ft | 10 kts | 202° |
| 2026-04-29 01:35 | 33.56107 | -86.75886 | 624 ft | 0 kts | 194° |
| 2026-04-29 01:35 | 33.56103 | -86.75887 | 624 ft | 0 kts | 189° |
| 2026-04-29 01:36 | 33.56102 | -86.75887 | 624 ft | 0 kts | 188° |
| 2026-04-29 01:36 | 33.56099 | -86.75873 | 623 ft | 8 kts | 68° |
| 2026-04-29 01:36 | 33.56132 | -86.75818 | 622 ft | 10 kts | 54° |
| 2026-04-29 01:36 | 33.56176 | -86.75740 | 622 ft | 10 kts | 70° |
| 2026-04-29 01:37 | 33.56158 | -86.75656 | 620 ft | 5 kts | 105° |
| 2026-04-29 01:37 | 33.56166 | -86.75605 | 620 ft | 7 kts | 65° |
| 2026-04-29 01:37 | 33.56196 | -86.75547 | 621 ft | 8 kts | 57° |
| 2026-04-29 01:37 | 33.56231 | -86.75487 | 623 ft | 8 kts | 54° |
| 2026-04-29 01:38 | 33.56261 | -86.75433 | 625 ft | 6 kts | 61° |
| 2026-04-29 01:38 | 33.56264 | -86.75386 | 625 ft | 0 kts | 123° |
| 2026-04-29 01:38 | 33.56263 | -86.75385 | 625 ft | 0 kts | 121° |
| 2026-04-29 01:39 | 33.56263 | -86.75384 | 625 ft | 0 kts | 121° |
| 2026-04-29 01:39 | 33.56268 | -86.75354 | 625 ft | 5 kts | 82° |
| 2026-04-29 01:39 | 33.56265 | -86.75330 | 625 ft | 1 kts | 105° |
| 2026-04-29 01:40 | 33.56263 | -86.75326 | 625 ft | 0 kts | 118° |